AirNav   Air Wisconsin Up To $57,000 Bonus
 
 1485 users online  

UT33 Kutv Channel Two Heliport
Salt Lake City, Utah, USA

GOING TO SALT LAKE CITY?


FAA INFORMATION EFFECTIVE 05 DECEMBER 2019

Location

FAA Identifier: UT33
Lat/Long: 40-43-28.8060N 111-58-34.7800W
40-43.480100N 111-58.579667W
40.7246683,-111.9763278
(estimated)
Elevation: 4240 ft. / 1292 m (estimated)
Variation: 15E (1985)
From city: 6 miles SW of SALT LAKE CITY, UT
Time zone: UTC -7 (UTC -6 during Daylight Saving Time)
Zip code: 84120

Heliport Operations

Heliport use: Private use. Permission required prior to landing
Activation date: 05/1979
Control tower: no
ARTCC: SALT LAKE CITY CENTER
FSS: CEDAR CITY FLIGHT SERVICE STATION
Attendance: CONTINUOUS
Wind indicator: lighted
Segmented circle: no
Lights: SS-SR

Heliport Communications

WX ASOS at SLC (4 nm N): PHONE 801-328-3567
WX AWOS-3 at U42 (6 nm S): 134.425 (801-562-0271)
WX AWOS-3 at TVY (18 nm W): 119.725 (435-882-6648)

Nearby radio navigation aids

VOR radial/distance  VOR name  Freq  Var
TCHr162/7.5WASATCH VORTAC116.8016E
FFUr341/27.0FAIRFIELD VORTAC116.6016E
OGDr156/30.5OGDEN VORTAC115.7014E
PVUr324/32.7PROVO VOR/DME108.4015E

Heliport Services

Fuel available: A

Runway Information

Helipad H1

Dimensions: 100 x 100 ft. / 30 x 30 m
Surface: concrete
Runway edge lights: medium intensity
Latitude: 40-43.480100N
Longitude: 111-58.579667W
Elevation: 4240.0 ft.
Traffic pattern: leftleft

Heliport Ownership and Management from official FAA records

Ownership: Privately-owned
Owner: WELLS FARGO CENTER (FACILITY)
WASATCH COMMERCIAL MANAGEMENT, 299 SOUTH MAIN #355
SALT LAKE CITY, UT 84111
Phone 501-961-1078
Manager: JENNY NIELSON
299 SOUTH MAIN #355
SALT LAKE CITY, UT 84111
Phone 501-961-1078

Heliport Operational Statistics

Aircraft based on the field: 1
Helicopters: 1
    

Additional Remarks

FOR CD CTC SALT LAKE CITY APCH AT 801-325-9670.

Instrument Procedures

There are no published instrument procedures at UT33.

Some nearby airports with instrument procedures:

KSLC - Salt Lake City International Airport (4 nm N)
U42 - South Valley Regional Airport (6 nm S)
KTVY - Bolinder Field-Tooele Valley Airport (18 nm W)
KHIF - Hill Air Force Base (24 nm N)
KOGD - Ogden-Hinckley Airport (28 nm N)
 
Loc | Ops | Rwys | IFR | FBO | Links
Com | Nav | Svcs | Stats | Notes
Area around UT33 (Kutv Channel Two Heliport)
 
Road maps at: MapQuest Bing Google
 
Aerial photo
No photo
 
Sectional chart

 
Airport distance calculator
Flying to Kutv Channel Two Heliport? Find the distance to fly.

From to UT33

Sunrise and sunset
Times for 06-Dec-2019
 Local
(UTC-7)
 Zulu
(UTC)
Morning civil twilight07:0814:08
Sunrise07:3914:39
Sunset16:5923:59
Evening civil twilight17:3000:30

Current date and time
Zulu (UTC)  06-Dec-2019 16:50:27
Local (UTC-7)  06-Dec-2019 09:50:27
 
METAR
KSLC 
4nm N 
061631Z 10003KT 1/4SM R16L/P6000FT FG OVC002 02/02 A3033 RMK AO2 TWR VIS 1 T00220017
KU42 
7nm S 
061635Z AUTO 00000KT M1/4SM OVC048 00/00 A3033 RMK AO1 T00030003
KTVY 
18nm W 
061635Z AUTO 00000KT 2 1/2SM BR SCT001 BKN047 01/01 A3033 RMK AO2
TAF
KSLC 
4nm N 
061607Z 0616/0718 02005KT 1SM BR BKN003 OVC005 TEMPO 0616/0618 1/4SM FG BKN002 FM061800 14003KT 3SM BR OVC008 FM062000 22005KT 4SM HZ SCT006 OVC020 FM070300 15006KT 3SM BR BKN010 OVC030
NOTAMs
Click for the latest NOTAMs
NOTAMs are issued by the DoD/FAA and will open in a separate window not controlled by AirNav.

 

 
 

Would you like to see your business listed on this page?

 If your business provides an interesting product or service to pilots, flight crews, aircraft, or users of the Kutv Channel Two Heliport, you should consider listing it here.  To start the listing process, click on the button below
 
Add a business
 

Other Pages about Kutv Channel Two Heliport

Update a link
 
Copyright © AirNav, LLC. All rights reserved. Privacy Policy  Contact